sensor_id;sensor_type;location;lat;lon;timestamp;pressure;altitude;pressure_sealevel;temperature;humidity
12182;BME280;6154;51.550;12.138;2023-09-19T00:02:20;99636.84;;;23.04;63.49
12182;BME280;6154;51.550;12.138;2023-09-19T00:04:49;99637.88;;;23.03;63.14
12182;BME280;6154;51.550;12.138;2023-09-19T00:07:19;99635.25;;;22.94;64.07
12182;BME280;6154;51.550;12.138;2023-09-19T00:09:49;99634.25;;;22.96;64.77
12182;BME280;6154;51.550;12.138;2023-09-19T00:12:19;99645.50;;;22.99;63.79
12182;BME280;6154;51.550;12.138;2023-09-19T00:14:47;99640.13;;;22.99;63.45
12182;BME280;6154;51.550;12.138;2023-09-19T00:17:15;99642.25;;;23.04;62.66
12182;BME280;6154;51.550;12.138;2023-09-19T00:19:43;99644.31;;;23.02;62.71
12182;BME280;6154;51.550;12.138;2023-09-19T00:22:13;99631.81;;;23.01;62.99
12182;BME280;6154;51.550;12.138;2023-09-19T00:24:43;99636.28;;;22.93;62.78
12182;BME280;6154;51.550;12.138;2023-09-19T00:27:11;99633.56;;;22.93;62.83
12182;BME280;6154;51.550;12.138;2023-09-19T00:29:40;99633.69;;;22.85;63.24
12182;BME280;6154;51.550;12.138;2023-09-19T00:32:08;99635.84;;;22.82;63.29
12182;BME280;6154;51.550;12.138;2023-09-19T00:34:37;99655.44;;;22.84;63.31
12182;BME280;6154;51.550;12.138;2023-09-19T00:37:05;99655.91;;;22.87;63.05
12182;BME280;6154;51.550;12.138;2023-09-19T00:39:33;99652.88;;;22.82;62.99
12182;BME280;6154;51.550;12.138;2023-09-19T00:42:01;99649.06;;;22.77;62.90
12182;BME280;6154;51.550;12.138;2023-09-19T00:44:31;99648.38;;;22.60;63.12
12182;BME280;6154;51.550;12.138;2023-09-19T00:47:03;99645.97;;;22.65;63.49
12182;BME280;6154;51.550;12.138;2023-09-19T00:49:32;99636.16;;;22.49;63.83
12182;BME280;6154;51.550;12.138;2023-09-19T00:52:00;99641.66;;;22.56;63.55
12182;BME280;6154;51.550;12.138;2023-09-19T00:54:32;99632.56;;;22.57;63.35
12182;BME280;6154;51.550;12.138;2023-09-19T00:57:02;99634.69;;;22.61;63.33
12182;BME280;6154;51.550;12.138;2023-09-19T00:59:30;99624.16;;;22.52;64.77
12182;BME280;6154;51.550;12.138;2023-09-19T01:01:58;99618.53;;;22.38;64.63
12182;BME280;6154;51.550;12.138;2023-09-19T01:04:29;99625.53;;;22.48;64.11
12182;BME280;6154;51.550;12.138;2023-09-19T01:06:57;99628.84;;;22.35;65.33
12182;BME280;6154;51.550;12.138;2023-09-19T01:09:26;99626.31;;;22.33;64.53
12182;BME280;6154;51.550;12.138;2023-09-19T01:11:58;99620.91;;;22.33;64.50
12182;BME280;6154;51.550;12.138;2023-09-19T01:14:34;99634.28;;;22.27;65.48
12182;BME280;6154;51.550;12.138;2023-09-19T01:17:09;99630.63;;;22.43;64.46
12182;BME280;6154;51.550;12.138;2023-09-19T01:20:11;99642.63;;;22.40;64.58
12182;BME280;6154;51.550;12.138;2023-09-19T01:22:55;99646.47;;;22.46;65.96
12182;BME280;6154;51.550;12.138;2023-09-19T01:26:05;99656.66;;;22.35;65.83
12182;BME280;6154;51.550;12.138;2023-09-19T01:28:45;99662.53;;;22.39;66.37
12182;BME280;6154;51.550;12.138;2023-09-19T01:31:23;99659.88;;;22.31;65.20
12182;BME280;6154;51.550;12.138;2023-09-19T01:33:57;99668.50;;;22.26;65.74
12182;BME280;6154;51.550;12.138;2023-09-19T01:36:28;99668.13;;;22.29;65.33
12182;BME280;6154;51.550;12.138;2023-09-19T01:38:57;99665.44;;;22.29;64.69
12182;BME280;6154;51.550;12.138;2023-09-19T01:41:38;99665.25;;;22.31;64.97
12182;BME280;6154;51.550;12.138;2023-09-19T01:44:21;99668.97;;;22.30;65.59
12182;BME280;6154;51.550;12.138;2023-09-19T01:46:58;99677.25;;;22.28;64.81
12182;BME280;6154;51.550;12.138;2023-09-19T01:49:34;99676.88;;;22.31;64.75
12182;BME280;6154;51.550;12.138;2023-09-19T01:52:11;99680.97;;;22.27;65.01
12182;BME280;6154;51.550;12.138;2023-09-19T01:54:48;99690.06;;;22.26;65.04
12182;BME280;6154;51.550;12.138;2023-09-19T01:57:22;99695.87;;;22.15;64.58
12182;BME280;6154;51.550;12.138;2023-09-19T01:59:59;99702.22;;;22.22;65.23
12182;BME280;6154;51.550;12.138;2023-09-19T02:02:42;99704.56;;;22.25;64.41
12182;BME280;6154;51.550;12.138;2023-09-19T02:05:11;99706.81;;;22.14;64.46
12182;BME280;6154;51.550;12.138;2023-09-19T02:07:40;99712.16;;;22.22;64.35
12182;BME280;6154;51.550;12.138;2023-09-19T02:10:08;99716.72;;;22.21;64.30
12182;BME280;6154;51.550;12.138;2023-09-19T02:12:37;99715.44;;;22.09;64.57
12182;BME280;6154;51.550;12.138;2023-09-19T02:15:06;99716.91;;;22.20;64.38
12182;BME280;6154;51.550;12.138;2023-09-19T02:17:35;99716.34;;;22.24;64.39
12182;BME280;6154;51.550;12.138;2023-09-19T02:20:05;99722.75;;;22.23;64.56
12182;BME280;6154;51.550;12.138;2023-09-19T02:22:41;99728.66;;;22.27;64.25
12182;BME280;6154;51.550;12.138;2023-09-19T02:25:09;99736.81;;;22.11;64.56
12182;BME280;6154;51.550;12.138;2023-09-19T02:27:38;99735.00;;;22.34;64.14
12182;BME280;6154;51.550;12.138;2023-09-19T02:30:07;99724.41;;;22.32;64.33
12182;BME280;6154;51.550;12.138;2023-09-19T02:32:35;99738.44;;;22.28;64.90
12182;BME280;6154;51.550;12.138;2023-09-19T02:35:08;99738.84;;;22.40;64.23
12182;BME280;6154;51.550;12.138;2023-09-19T02:37:38;99739.53;;;21.94;65.42
12182;BME280;6154;51.550;12.138;2023-09-19T02:40:07;99742.97;;;22.27;64.64
12182;BME280;6154;51.550;12.138;2023-09-19T02:42:46;99745.50;;;22.29;64.14
12182;BME280;6154;51.550;12.138;2023-09-19T02:45:16;99747.88;;;22.24;64.38
12182;BME280;6154;51.550;12.138;2023-09-19T02:47:48;99741.72;;;22.07;64.53
12182;BME280;6154;51.550;12.138;2023-09-19T02:50:18;99741.81;;;22.22;63.91
12182;BME280;6154;51.550;12.138;2023-09-19T02:52:47;99745.72;;;22.19;64.08
12182;BME280;6154;51.550;12.138;2023-09-19T02:55:17;99751.97;;;22.12;63.99
12182;BME280;6154;51.550;12.138;2023-09-19T02:57:47;99746.91;;;22.17;64.22
12182;BME280;6154;51.550;12.138;2023-09-19T03:00:16;99752.47;;;22.15;64.59
12182;BME280;6154;51.550;12.138;2023-09-19T03:02:49;99748.81;;;22.08;64.53
12182;BME280;6154;51.550;12.138;2023-09-19T03:05:19;99744.69;;;22.20;64.06
12182;BME280;6154;51.550;12.138;2023-09-19T03:07:48;99756.13;;;22.22;63.97
12182;BME280;6154;51.550;12.138;2023-09-19T03:10:20;99751.94;;;22.20;63.75
12182;BME280;6154;51.550;12.138;2023-09-19T03:12:49;99759.72;;;22.15;64.23
12182;BME280;6154;51.550;12.138;2023-09-19T03:15:17;99752.34;;;22.08;64.30
12182;BME280;6154;51.550;12.138;2023-09-19T03:17:47;99757.53;;;22.10;64.01
12182;BME280;6154;51.550;12.138;2023-09-19T03:20:19;99757.53;;;22.02;65.18
12182;BME280;6154;51.550;12.138;2023-09-19T03:22:48;99770.00;;;22.03;64.10
12182;BME280;6154;51.550;12.138;2023-09-19T03:25:16;99780.47;;;21.98;65.12
12182;BME280;6154;51.550;12.138;2023-09-19T03:27:45;99774.06;;;21.99;64.32
12182;BME280;6154;51.550;12.138;2023-09-19T03:30:14;99778.81;;;21.97;64.62
12182;BME280;6154;51.550;12.138;2023-09-19T03:32:46;99771.87;;;21.94;64.68
12182;BME280;6154;51.550;12.138;2023-09-19T03:35:18;99770.72;;;21.97;64.92
12182;BME280;6154;51.550;12.138;2023-09-19T03:37:47;99769.88;;;21.96;64.88
12182;BME280;6154;51.550;12.138;2023-09-19T03:40:16;99764.28;;;22.06;64.25
12182;BME280;6154;51.550;12.138;2023-09-19T03:42:47;99769.53;;;22.07;63.98
12182;BME280;6154;51.550;12.138;2023-09-19T03:45:15;99770.69;;;22.05;63.91
12182;BME280;6154;51.550;12.138;2023-09-19T03:47:45;99775.47;;;21.87;63.85
12182;BME280;6154;51.550;12.138;2023-09-19T03:50:15;99773.81;;;21.77;64.23
12182;BME280;6154;51.550;12.138;2023-09-19T03:52:46;99771.69;;;22.04;63.59
12182;BME280;6154;51.550;12.138;2023-09-19T03:55:14;99785.16;;;22.04;63.63
12182;BME280;6154;51.550;12.138;2023-09-19T03:57:47;99780.47;;;21.98;63.83
12182;BME280;6154;51.550;12.138;2023-09-19T04:00:16;99780.13;;;21.93;64.40
12182;BME280;6154;51.550;12.138;2023-09-19T04:02:48;99784.94;;;21.66;64.09
12182;BME280;6154;51.550;12.138;2023-09-19T04:05:16;99777.38;;;21.53;64.22
12182;BME280;6154;51.550;12.138;2023-09-19T04:07:46;99790.97;;;21.85;64.15
12182;BME280;6154;51.550;12.138;2023-09-19T04:10:17;99774.81;;;21.85;64.10
12182;BME280;6154;51.550;12.138;2023-09-19T04:12:52;99783.72;;;21.85;64.11
12182;BME280;6154;51.550;12.138;2023-09-19T04:15:22;99794.50;;;21.85;64.46
12182;BME280;6154;51.550;12.138;2023-09-19T04:17:51;99795.50;;;21.84;63.67
12182;BME280;6154;51.550;12.138;2023-09-19T04:20:20;99797.88;;;21.79;63.60
12182;BME280;6154;51.550;12.138;2023-09-19T04:22:51;99797.22;;;21.77;64.04
12182;BME280;6154;51.550;12.138;2023-09-19T04:25:20;99801.06;;;21.74;63.82
12182;BME280;6154;51.550;12.138;2023-09-19T04:27:48;99811.53;;;21.69;64.20
12182;BME280;6154;51.550;12.138;2023-09-19T04:30:16;99814.03;;;21.71;64.17
12182;BME280;6154;51.550;12.138;2023-09-19T04:32:44;99815.91;;;21.70;63.88
12182;BME280;6154;51.550;12.138;2023-09-19T04:35:18;99813.22;;;21.70;63.68
12182;BME280;6154;51.550;12.138;2023-09-19T04:37:46;99813.38;;;21.69;63.67
12182;BME280;6154;51.550;12.138;2023-09-19T04:40:16;99820.63;;;21.68;63.35
12182;BME280;6154;51.550;12.138;2023-09-19T04:42:53;99820.97;;;21.65;63.31
12182;BME280;6154;51.550;12.138;2023-09-19T04:45:23;99829.72;;;21.59;64.22
12182;BME280;6154;51.550;12.138;2023-09-19T04:47:51;99829.38;;;21.54;63.52
12182;BME280;6154;51.550;12.138;2023-09-19T04:50:20;99829.91;;;21.49;63.62
12182;BME280;6154;51.550;12.138;2023-09-19T04:52:50;99828.56;;;21.37;63.81
12182;BME280;6154;51.550;12.138;2023-09-19T04:55:20;99834.78;;;21.30;63.90
12182;BME280;6154;51.550;12.138;2023-09-19T04:57:49;99837.25;;;21.23;63.56
12182;BME280;6154;51.550;12.138;2023-09-19T05:00:19;99838.12;;;21.15;63.84
12182;BME280;6154;51.550;12.138;2023-09-19T05:02:50;99841.13;;;21.12;63.75
12182;BME280;6154;51.550;12.138;2023-09-19T05:05:19;99839.78;;;21.08;63.99
12182;BME280;6154;51.550;12.138;2023-09-19T05:07:47;99850.06;;;21.05;63.95
12182;BME280;6154;51.550;12.138;2023-09-19T05:10:16;99850.03;;;20.97;64.54
12182;BME280;6154;51.550;12.138;2023-09-19T05:12:47;99851.88;;;20.96;64.18
12182;BME280;6154;51.550;12.138;2023-09-19T05:15:18;99863.81;;;20.85;64.23
12182;BME280;6154;51.550;12.138;2023-09-19T05:17:50;99874.06;;;20.90;64.04
12182;BME280;6154;51.550;12.138;2023-09-19T05:20:23;99879.25;;;20.83;64.25
12182;BME280;6154;51.550;12.138;2023-09-19T05:23:00;99889.16;;;20.83;64.06
12182;BME280;6154;51.550;12.138;2023-09-19T05:25:31;99884.09;;;20.72;64.00
12182;BME280;6154;51.550;12.138;2023-09-19T05:28:01;99888.72;;;20.45;64.57
12182;BME280;6154;51.550;12.138;2023-09-19T05:30:31;99882.00;;;20.49;65.02
12182;BME280;6154;51.550;12.138;2023-09-19T05:32:59;99895.53;;;20.74;64.56
12182;BME280;6154;51.550;12.138;2023-09-19T05:35:27;99896.78;;;20.53;64.83
12182;BME280;6154;51.550;12.138;2023-09-19T05:37:56;99904.28;;;20.76;64.73
12182;BME280;6154;51.550;12.138;2023-09-19T05:40:25;99901.22;;;20.71;64.78
12182;BME280;6154;51.550;12.138;2023-09-19T05:42:54;99905.19;;;20.50;64.88
12182;BME280;6154;51.550;12.138;2023-09-19T05:45:23;99911.66;;;20.65;64.98
12182;BME280;6154;51.550;12.138;2023-09-19T05:47:53;99908.84;;;20.75;64.96
12182;BME280;6154;51.550;12.138;2023-09-19T05:50:23;99906.00;;;20.85;64.47
12182;BME280;6154;51.550;12.138;2023-09-19T05:52:52;99909.25;;;20.62;64.93
12182;BME280;6154;51.550;12.138;2023-09-19T05:55:20;99912.84;;;20.71;65.29
12182;BME280;6154;51.550;12.138;2023-09-19T05:57:51;99910.75;;;20.99;64.70
12182;BME280;6154;51.550;12.138;2023-09-19T06:00:20;99912.63;;;21.23;64.23
12182;BME280;6154;51.550;12.138;2023-09-19T06:02:52;99917.19;;;21.22;64.44
12182;BME280;6154;51.550;12.138;2023-09-19T06:05:21;99914.31;;;21.24;65.04
12182;BME280;6154;51.550;12.138;2023-09-19T06:07:49;99918.50;;;21.10;64.92
12182;BME280;6154;51.550;12.138;2023-09-19T06:10:19;99928.00;;;21.39;65.42
12182;BME280;6154;51.550;12.138;2023-09-19T06:12:50;99933.44;;;21.55;65.10
12182;BME280;6154;51.550;12.138;2023-09-19T06:15:18;99943.69;;;21.68;65.06
12182;BME280;6154;51.550;12.138;2023-09-19T06:17:49;99945.88;;;21.72;65.41
12182;BME280;6154;51.550;12.138;2023-09-19T06:20:19;99949.91;;;21.93;64.58
12182;BME280;6154;51.550;12.138;2023-09-19T06:22:47;99945.72;;;22.15;64.10
12182;BME280;6154;51.550;12.138;2023-09-19T06:25:16;99942.31;;;22.29;63.65
12182;BME280;6154;51.550;12.138;2023-09-19T06:27:47;99949.09;;;22.25;64.04
12182;BME280;6154;51.550;12.138;2023-09-19T06:30:16;99950.22;;;22.30;63.68
12182;BME280;6154;51.550;12.138;2023-09-19T06:32:44;99954.69;;;22.62;62.62
12182;BME280;6154;51.550;12.138;2023-09-19T06:35:13;99956.31;;;22.80;62.15
12182;BME280;6154;51.550;12.138;2023-09-19T06:37:44;99952.16;;;22.61;60.10
12182;BME280;6154;51.550;12.138;2023-09-19T06:40:13;99954.03;;;22.60;61.80
12182;BME280;6154;51.550;12.138;2023-09-19T06:42:42;99952.28;;;22.84;61.52
12182;BME280;6154;51.550;12.138;2023-09-19T06:45:12;99958.84;;;23.20;59.82
12182;BME280;6154;51.550;12.138;2023-09-19T06:47:40;99951.62;;;23.13;59.58
12182;BME280;6154;51.550;12.138;2023-09-19T06:50:09;99961.97;;;23.32;59.06
12182;BME280;6154;51.550;12.138;2023-09-19T06:52:41;99967.06;;;23.35;57.62
12182;BME280;6154;51.550;12.138;2023-09-19T06:55:11;99965.03;;;23.60;57.76
12182;BME280;6154;51.550;12.138;2023-09-19T06:57:40;99976.81;;;23.67;58.32
12182;BME280;6154;51.550;12.138;2023-09-19T07:00:11;99974.09;;;23.90;56.87
12182;BME280;6154;51.550;12.138;2023-09-19T07:02:42;99976.59;;;23.77;57.09
12182;BME280;6154;51.550;12.138;2023-09-19T07:05:11;99987.41;;;23.77;56.79
12182;BME280;6154;51.550;12.138;2023-09-19T07:07:39;99990.03;;;23.62;55.83
12182;BME280;6154;51.550;12.138;2023-09-19T07:10:08;99992.06;;;23.60;55.51
12182;BME280;6154;51.550;12.138;2023-09-19T07:12:41;100006.66;;;23.74;56.09
12182;BME280;6154;51.550;12.138;2023-09-19T07:15:09;100009.78;;;23.55;55.67
12182;BME280;6154;51.550;12.138;2023-09-19T07:17:38;100022.31;;;23.56;56.63
12182;BME280;6154;51.550;12.138;2023-09-19T07:20:07;100020.16;;;23.74;57.12
12182;BME280;6154;51.550;12.138;2023-09-19T07:22:35;100036.81;;;23.55;55.02
12182;BME280;6154;51.550;12.138;2023-09-19T07:25:07;100034.75;;;23.65;55.28
12182;BME280;6154;51.550;12.138;2023-09-19T07:27:35;100036.50;;;23.80;56.69
12182;BME280;6154;51.550;12.138;2023-09-19T07:30:05;100046.16;;;23.75;56.91
12182;BME280;6154;51.550;12.138;2023-09-19T07:32:35;100048.44;;;23.63;56.52
12182;BME280;6154;51.550;12.138;2023-09-19T07:35:06;100047.19;;;23.43;55.85
12182;BME280;6154;51.550;12.138;2023-09-19T07:37:35;100059.81;;;23.50;54.48
12182;BME280;6154;51.550;12.138;2023-09-19T07:40:03;100059.03;;;23.73;56.12
12182;BME280;6154;51.550;12.138;2023-09-19T07:42:34;100063.63;;;23.64;54.75
12182;BME280;6154;51.550;12.138;2023-09-19T07:45:06;100067.50;;;23.70;55.13
12182;BME280;6154;51.550;12.138;2023-09-19T07:47:34;100064.66;;;24.17;54.59
12182;BME280;6154;51.550;12.138;2023-09-19T07:50:04;100054.66;;;24.18;54.05
12182;BME280;6154;51.550;12.138;2023-09-19T07:52:36;100057.25;;;24.34;55.88
12182;BME280;6154;51.550;12.138;2023-09-19T07:55:06;100065.28;;;24.19;53.90
12182;BME280;6154;51.550;12.138;2023-09-19T07:57:38;100059.50;;;24.22;54.08
12182;BME280;6154;51.550;12.138;2023-09-19T08:00:10;100061.44;;;23.91;55.65
12182;BME280;6154;51.550;12.138;2023-09-19T08:02:40;100069.66;;;23.74;53.90
12182;BME280;6154;51.550;12.138;2023-09-19T08:05:09;100072.94;;;23.62;55.49
12182;BME280;6154;51.550;12.138;2023-09-19T08:07:39;100073.72;;;24.01;56.00
12182;BME280;6154;51.550;12.138;2023-09-19T08:10:09;100082.06;;;24.15;55.87
12182;BME280;6154;51.550;12.138;2023-09-19T08:12:40;100081.41;;;24.13;54.39
12182;BME280;6154;51.550;12.138;2023-09-19T08:15:15;100080.59;;;23.81;56.13
12182;BME280;6154;51.550;12.138;2023-09-19T08:17:44;100084.00;;;24.29;55.35
12182;BME280;6154;51.550;12.138;2023-09-19T08:20:13;100076.56;;;24.31;55.02
12182;BME280;6154;51.550;12.138;2023-09-19T08:22:47;100079.59;;;24.05;53.51
12182;BME280;6154;51.550;12.138;2023-09-19T08:25:16;100072.09;;;24.15;54.98
12182;BME280;6154;51.550;12.138;2023-09-19T08:27:46;100068.34;;;23.93;52.89
12182;BME280;6154;51.550;12.138;2023-09-19T08:30:18;100066.78;;;24.22;54.50
12182;BME280;6154;51.550;12.138;2023-09-19T08:32:56;100067.87;;;24.13;53.31
12182;BME280;6154;51.550;12.138;2023-09-19T08:35:26;100068.31;;;24.01;52.56
12182;BME280;6154;51.550;12.138;2023-09-19T08:37:54;100061.63;;;24.35;52.75
12182;BME280;6154;51.550;12.138;2023-09-19T08:40:23;100066.84;;;24.59;52.67
12182;BME280;6154;51.550;12.138;2023-09-19T08:42:57;100073.59;;;24.78;53.28
12182;BME280;6154;51.550;12.138;2023-09-19T08:45:27;100080.28;;;24.82;53.45
12182;BME280;6154;51.550;12.138;2023-09-19T08:48:02;100075.19;;;25.02;52.48
12182;BME280;6154;51.550;12.138;2023-09-19T08:50:41;100086.81;;;25.26;50.44
12182;BME280;6154;51.550;12.138;2023-09-19T08:53:11;100092.56;;;25.22;50.88
12182;BME280;6154;51.550;12.138;2023-09-19T08:55:43;100090.59;;;24.87;50.23
12182;BME280;6154;51.550;12.138;2023-09-19T08:58:16;100092.53;;;24.78;51.28
12182;BME280;6154;51.550;12.138;2023-09-19T09:00:53;100094.75;;;24.75;50.19
12182;BME280;6154;51.550;12.138;2023-09-19T09:03:23;100098.72;;;24.49;49.94
12182;BME280;6154;51.550;12.138;2023-09-19T09:05:53;100088.63;;;25.25;52.50
12182;BME280;6154;51.550;12.138;2023-09-19T09:08:22;100094.97;;;24.88;48.20
12182;BME280;6154;51.550;12.138;2023-09-19T09:10:50;100087.97;;;24.79;50.14
12182;BME280;6154;51.550;12.138;2023-09-19T09:13:19;100081.00;;;25.29;49.57
12182;BME280;6154;51.550;12.138;2023-09-19T09:15:48;100087.44;;;25.28;49.60
12182;BME280;6154;51.550;12.138;2023-09-19T09:18:19;100090.41;;;25.47;50.36
12182;BME280;6154;51.550;12.138;2023-09-19T09:20:47;100105.75;;;25.11;48.14
12182;BME280;6154;51.550;12.138;2023-09-19T09:23:15;100106.00;;;25.01;51.10
12182;BME280;6154;51.550;12.138;2023-09-19T09:25:47;100099.75;;;24.86;50.86
12182;BME280;6154;51.550;12.138;2023-09-19T09:28:20;100098.56;;;25.03;50.67
12182;BME280;6154;51.550;12.138;2023-09-19T09:30:48;100105.00;;;25.02;48.97
12182;BME280;6154;51.550;12.138;2023-09-19T09:33:18;100111.22;;;24.88;48.90
12182;BME280;6154;51.550;12.138;2023-09-19T09:35:49;100119.00;;;25.35;48.64
12182;BME280;6154;51.550;12.138;2023-09-19T09:38:23;100109.00;;;25.50;51.26
12182;BME280;6154;51.550;12.138;2023-09-19T09:40:55;100109.62;;;25.67;49.10
12182;BME280;6154;51.550;12.138;2023-09-19T09:43:33;100103.09;;;25.62;51.27
12182;BME280;6154;51.550;12.138;2023-09-19T09:46:08;100111.87;;;25.64;49.35
12182;BME280;6154;51.550;12.138;2023-09-19T09:49:01;100115.91;;;25.53;47.59
12182;BME280;6154;51.550;12.138;2023-09-19T09:51:43;100114.03;;;25.68;47.17
12182;BME280;6154;51.550;12.138;2023-09-19T09:54:15;100114.63;;;25.49;45.49
12182;BME280;6154;51.550;12.138;2023-09-19T09:56:55;100108.56;;;25.47;45.37
12182;BME280;6154;51.550;12.138;2023-09-19T09:59:47;100112.44;;;25.44;42.69
12182;BME280;6154;51.550;12.138;2023-09-19T10:02:17;100111.63;;;25.29;42.93
12182;BME280;6154;51.550;12.138;2023-09-19T10:04:59;100110.47;;;25.53;46.92
12182;BME280;6154;51.550;12.138;2023-09-19T10:07:36;100113.69;;;25.12;45.53
12182;BME280;6154;51.550;12.138;2023-09-19T10:10:11;100115.84;;;25.17;47.96
12182;BME280;6154;51.550;12.138;2023-09-19T10:12:48;100121.59;;;24.99;45.34
12182;BME280;6154;51.550;12.138;2023-09-19T10:15:18;100116.97;;;25.37;48.69
12182;BME280;6154;51.550;12.138;2023-09-19T10:17:47;100123.03;;;25.25;44.71
12182;BME280;6154;51.550;12.138;2023-09-19T10:20:17;100119.66;;;25.52;48.14
12182;BME280;6154;51.550;12.138;2023-09-19T10:23:00;100128.13;;;24.90;45.96
12182;BME280;6154;51.550;12.138;2023-09-19T10:25:29;100123.97;;;25.46;47.56
12182;BME280;6154;51.550;12.138;2023-09-19T10:28:00;100127.88;;;25.14;44.10
12182;BME280;6154;51.550;12.138;2023-09-19T10:30:31;100130.28;;;25.68;46.20
12182;BME280;6154;51.550;12.138;2023-09-19T10:33:02;100134.25;;;25.21;41.87
12182;BME280;6154;51.550;12.138;2023-09-19T10:35:38;100121.16;;;25.40;43.72
12182;BME280;6154;51.550;12.138;2023-09-19T10:38:09;100121.69;;;25.79;44.30
12182;BME280;6154;51.550;12.138;2023-09-19T10:40:39;100121.72;;;26.01;45.89
12182;BME280;6154;51.550;12.138;2023-09-19T10:43:12;100121.59;;;26.09;45.97
12182;BME280;6154;51.550;12.138;2023-09-19T10:45:44;100118.34;;;25.77;44.72
12182;BME280;6154;51.550;12.138;2023-09-19T10:48:13;100123.00;;;26.05;46.88
12182;BME280;6154;51.550;12.138;2023-09-19T10:50:45;100129.63;;;25.81;44.67
12182;BME280;6154;51.550;12.138;2023-09-19T10:53:16;100127.97;;;26.16;44.34
12182;BME280;6154;51.550;12.138;2023-09-19T10:55:51;100137.59;;;26.04;41.91
12182;BME280;6154;51.550;12.138;2023-09-19T10:58:26;100130.38;;;26.11;41.91
12182;BME280;6154;51.550;12.138;2023-09-19T11:00:57;100128.13;;;25.64;41.73
12182;BME280;6154;51.550;12.138;2023-09-19T11:03:32;100136.34;;;26.21;46.23
12182;BME280;6154;51.550;12.138;2023-09-19T11:06:08;100142.56;;;25.79;44.29
12182;BME280;6154;51.550;12.138;2023-09-19T11:08:57;100142.91;;;25.91;41.73
12182;BME280;6154;51.550;12.138;2023-09-19T11:11:42;100129.63;;;25.96;41.37
12182;BME280;6154;51.550;12.138;2023-09-19T11:14:37;100134.50;;;25.86;41.93
12182;BME280;6154;51.550;12.138;2023-09-19T11:17:31;100134.00;;;25.97;40.13
12182;BME280;6154;51.550;12.138;2023-09-19T11:20:30;100129.97;;;25.93;41.65
12182;BME280;6154;51.550;12.138;2023-09-19T11:23:25;100135.50;;;25.85;39.30
12182;BME280;6154;51.550;12.138;2023-09-19T11:25:54;100132.34;;;25.66;39.88
12182;BME280;6154;51.550;12.138;2023-09-19T11:28:43;100134.88;;;25.83;42.87
12182;BME280;6154;51.550;12.138;2023-09-19T11:31:41;100123.19;;;25.67;41.20
12182;BME280;6154;51.550;12.138;2023-09-19T11:34:45;100135.25;;;25.79;40.10
12182;BME280;6154;51.550;12.138;2023-09-19T11:40:37;100127.78;;;26.03;40.97
12182;BME280;6154;51.550;12.138;2023-09-19T11:43:30;100129.03;;;26.00;44.05
12182;BME280;6154;51.550;12.138;2023-09-19T11:46:06;100120.88;;;26.00;40.18
12182;BME280;6154;51.550;12.138;2023-09-19T11:48:35;100123.41;;;26.02;45.19
12182;BME280;6154;51.550;12.138;2023-09-19T11:51:16;100117.88;;;26.10;45.47
12182;BME280;6154;51.550;12.138;2023-09-19T11:53:50;100118.69;;;26.11;41.92
12182;BME280;6154;51.550;12.138;2023-09-19T11:56:22;100112.16;;;26.05;41.01
12182;BME280;6154;51.550;12.138;2023-09-19T11:58:52;100109.66;;;26.25;42.73
12182;BME280;6154;51.550;12.138;2023-09-19T12:01:24;100111.59;;;26.31;45.38
12182;BME280;6154;51.550;12.138;2023-09-19T12:03:57;100111.94;;;26.43;42.85
12182;BME280;6154;51.550;12.138;2023-09-19T12:06:27;100103.66;;;26.51;43.35
12182;BME280;6154;51.550;12.138;2023-09-19T12:08:56;100107.25;;;26.79;43.88
12182;BME280;6154;51.550;12.138;2023-09-19T12:11:29;100114.63;;;26.64;42.46
12182;BME280;6154;51.550;12.138;2023-09-19T12:14:01;100108.63;;;26.97;43.32
12182;BME280;6154;51.550;12.138;2023-09-19T12:16:31;100122.78;;;26.64;39.90
12182;BME280;6154;51.550;12.138;2023-09-19T12:19:19;100108.94;;;27.08;44.32
12182;BME280;6154;51.550;12.138;2023-09-19T12:21:59;100106.47;;;26.92;37.70
12182;BME280;6154;51.550;12.138;2023-09-19T12:24:32;100110.72;;;27.01;39.99
12182;BME280;6154;51.550;12.138;2023-09-19T12:27:06;100100.91;;;26.72;41.90
12182;BME280;6154;51.550;12.138;2023-09-19T12:29:45;100091.63;;;26.60;41.01
12182;BME280;6154;51.550;12.138;2023-09-19T12:32:13;100095.13;;;26.82;39.05
12182;BME280;6154;51.550;12.138;2023-09-19T12:34:50;100098.91;;;27.09;44.17
12182;BME280;6154;51.550;12.138;2023-09-19T12:37:20;100102.50;;;26.88;40.06
12182;BME280;6154;51.550;12.138;2023-09-19T12:39:50;100098.66;;;27.04;42.94
12182;BME280;6154;51.550;12.138;2023-09-19T12:42:24;100099.31;;;26.84;41.69
12182;BME280;6154;51.550;12.138;2023-09-19T12:44:56;100106.91;;;26.40;39.08
12182;BME280;6154;51.550;12.138;2023-09-19T12:47:29;100114.81;;;26.62;42.27
12182;BME280;6154;51.550;12.138;2023-09-19T12:50:09;100094.19;;;26.25;41.17
12182;BME280;6154;51.550;12.138;2023-09-19T12:52:43;100098.22;;;26.08;38.31
12182;BME280;6154;51.550;12.138;2023-09-19T12:55:24;100101.91;;;26.43;38.84
12182;BME280;6154;51.550;12.138;2023-09-19T12:58:12;100096.06;;;26.40;37.88
12182;BME280;6154;51.550;12.138;2023-09-19T13:00:43;100098.00;;;26.74;37.64
12182;BME280;6154;51.550;12.138;2023-09-19T13:03:14;100091.22;;;26.91;40.12
12182;BME280;6154;51.550;12.138;2023-09-19T13:05:56;100081.59;;;26.60;37.57
12182;BME280;6154;51.550;12.138;2023-09-19T13:08:26;100087.06;;;26.95;38.20
12182;BME280;6154;51.550;12.138;2023-09-19T13:11:03;100085.59;;;26.92;38.67
12182;BME280;6154;51.550;12.138;2023-09-19T13:13:36;100097.75;;;26.97;38.42
12182;BME280;6154;51.550;12.138;2023-09-19T13:16:05;100094.44;;;27.01;37.84
12182;BME280;6154;51.550;12.138;2023-09-19T13:18:45;100087.06;;;26.95;39.50
12182;BME280;6154;51.550;12.138;2023-09-19T13:21:14;100086.41;;;26.86;41.65
12182;BME280;6154;51.550;12.138;2023-09-19T13:23:51;100079.94;;;26.87;37.46
12182;BME280;6154;51.550;12.138;2023-09-19T13:26:20;100084.97;;;26.62;39.29